Time;durP1;ratioP1;P1;durP2;ratioP2;P2;SDS_P1;SDS_P2;PMS_P1;PMS_P2;Temp;Humidity;BMP_temperature;BMP_pressure;BME280_temperature;BME280_humidity;BME280_pressure;Samples;Min_cycle;Max_cycle;Signal;HPM_P1;HPM_P2
2023/06/23 00:01:23;;;;;;;14.83;13.60;;;;;;;25.70;83.89;99676.16;5091336;28;20191;-68
2023/06/23 00:03:54;;;;;;;13.23;12.30;;;;;;;25.73;84.47;99680.19;5091012;28;20193;-67
2023/06/23 00:06:21;;;;;;;14.50;13.20;;;;;;;25.81;83.59;99685.00;5076227;28;20192;-67
2023/06/23 00:08:48;;;;;;;13.23;12.23;;;;;;;25.85;83.51;99683.31;5087282;28;20191;-67
2023/06/23 00:11:15;;;;;;;14.73;13.50;;;;;;;25.93;82.81;99685.41;5091779;28;20199;-67
2023/06/23 00:13:41;;;;;;;15.00;13.63;;;;;;;25.97;82.62;99689.19;5092048;28;20191;-67
2023/06/23 00:16:09;;;;;;;13.20;12.03;;;;;;;26.00;83.18;99696.78;5091732;28;20223;-68
2023/06/23 00:18:39;;;;;;;13.77;12.37;;;;;;;26.04;82.46;99681.50;5091052;28;20192;-67
2023/06/23 00:21:07;;;;;;;12.87;12.07;;;;;;;26.08;82.01;99688.78;5091879;28;20191;-67
2023/06/23 00:23:34;;;;;;;13.87;12.77;;;;;;;26.10;82.71;99680.31;5091710;28;20195;-66
2023/06/23 00:26:03;;;;;;;14.17;13.10;;;;;;;26.15;82.58;99677.50;5091394;28;20732;-68
2023/06/23 00:28:30;;;;;;;16.90;12.97;;;;;;;26.17;82.83;99686.22;5090878;28;20278;-67
2023/06/23 00:30:56;;;;;;;14.40;13.17;;;;;;;26.05;81.78;99678.44;5094885;28;20280;-67
2023/06/23 00:33:24;;;;;;;13.73;12.30;;;;;;;25.89;82.91;99662.59;5094982;28;20551;-67
2023/06/23 00:35:51;;;;;;;16.23;12.97;;;;;;;26.02;81.56;99679.06;5094714;28;20215;-67
2023/06/23 00:38:18;;;;;;;14.03;12.70;;;;;;;26.07;81.59;99680.88;5094932;28;20210;-67
2023/06/23 00:40:45;;;;;;;17.23;12.70;;;;;;;26.09;81.61;99676.75;5095262;28;20191;-67
2023/06/23 00:43:12;;;;;;;13.80;12.53;;;;;;;26.05;80.05;99678.44;5095072;28;20195;-67
2023/06/23 00:45:39;;;;;;;14.10;12.87;;;;;;;25.99;79.24;99684.25;5094403;28;20256;-67
2023/06/23 00:48:08;;;;;;;13.20;12.30;;;;;;;25.81;82.10;99683.09;5094398;28;20195;-66
2023/06/23 00:50:37;;;;;;;11.93;11.00;;;;;;;25.77;81.33;99681.25;5095083;28;20561;-66
2023/06/23 00:53:04;;;;;;;12.93;12.03;;;;;;;25.83;80.46;99682.78;5094629;28;20667;-67
2023/06/23 00:55:30;;;;;;;13.70;12.50;;;;;;;25.86;79.54;99684.94;5094456;28;20775;-67
2023/06/23 00:57:58;;;;;;;13.53;12.43;;;;;;;25.81;80.36;99682.28;5094093;28;20223;-67
2023/06/23 01:00:27;;;;;;;12.73;11.80;;;;;;;25.77;79.88;99678.53;5094901;28;20256;-68
2023/06/23 01:02:57;;;;;;;16.27;11.90;;;;;;;25.75;80.03;99681.53;5094787;28;20195;-68
2023/06/23 01:05:28;;;;;;;13.27;12.07;;;;;;;25.78;80.30;99682.84;5094520;28;20218;-68
2023/06/23 01:08:05;;;;;;;12.17;11.33;;;;;;;25.88;80.06;99682.75;5094775;28;20203;-67
2023/06/23 01:10:38;;;;;;;13.13;12.17;;;;;;;25.95;79.67;99686.75;5094522;28;20183;-67
2023/06/23 01:13:14;;;;;;;13.10;11.50;;;;;;;25.93;80.07;99685.41;5094354;28;20187;-68
2023/06/23 01:15:46;;;;;;;13.93;12.60;;;;;;;25.82;80.19;99679.28;5094370;28;20701;-67
2023/06/23 01:18:20;;;;;;;13.53;12.53;;;;;;;25.77;80.61;99675.81;5093815;28;20219;-67
2023/06/23 01:20:47;;;;;;;13.80;12.43;;;;;;;25.70;80.01;99667.16;5094838;28;20183;-67
2023/06/23 01:23:35;;;;;;;12.37;11.47;;;;;;;25.77;81.27;99675.81;5093974;28;20245;-67
2023/06/23 01:26:10;;;;;;;12.37;11.43;;;;;;;25.83;81.00;99675.44;5094460;28;20195;-68
2023/06/23 01:28:58;;;;;;;13.07;12.07;;;;;;;25.82;81.01;99667.56;5093466;28;20578;-67
2023/06/23 01:31:32;;;;;;;13.63;12.50;;;;;;;25.76;81.34;99658.66;5094346;28;20226;-67
2023/06/23 01:34:07;;;;;;;13.27;12.10;;;;;;;25.75;80.83;99650.78;5093920;28;20274;-66
2023/06/23 01:36:39;;;;;;;14.57;13.13;;;;;;;25.72;81.51;99648.66;5093500;28;20264;-67
2023/06/23 01:39:09;;;;;;;13.60;12.30;;;;;;;25.66;81.28;99655.25;5093799;28;20647;-67
2023/06/23 01:41:42;;;;;;;14.47;13.37;;;;;;;25.68;81.68;99650.34;5093577;28;20184;-69
2023/06/23 01:44:14;;;;;;;13.67;12.43;;;;;;;25.73;81.38;99653.00;5073753;28;20539;-68
2023/06/23 01:46:44;;;;;;;14.43;13.33;;;;;;;25.81;80.97;99655.06;5091995;28;20183;-66
2023/06/23 01:49:17;;;;;;;14.43;13.03;;;;;;;25.76;80.34;99653.22;5093876;28;20313;-66
2023/06/23 01:51:46;;;;;;;14.43;13.43;;;;;;;25.79;80.35;99671.69;5094036;28;20223;-66
2023/06/23 01:54:15;;;;;;;14.93;13.53;;;;;;;25.72;81.02;99667.69;5093781;28;20191;-66
2023/06/23 01:56:43;;;;;;;15.10;13.37;;;;;;;25.70;81.12;99664.44;5092837;28;20214;-67
2023/06/23 01:59:12;;;;;;;16.40;13.10;;;;;;;25.72;81.51;99668.50;5093691;28;20188;-68
2023/06/23 02:01:42;;;;;;;13.97;12.80;;;;;;;25.76;80.93;99664.09;5093998;28;20194;-68
2023/06/23 02:04:10;;;;;;;14.27;13.00;;;;;;;25.79;80.97;99668.97;5093575;28;20192;-68
2023/06/23 02:06:39;;;;;;;13.53;12.30;;;;;;;25.79;81.09;99670.88;5091440;28;20282;-68
2023/06/23 02:09:09;;;;;;;13.50;12.40;;;;;;;25.79;80.98;99673.59;5093639;28;20187;-68
2023/06/23 02:11:37;;;;;;;14.63;12.27;;;;;;;25.82;80.82;99667.56;5093415;28;20198;-67
2023/06/23 02:14:05;;;;;;;13.97;12.63;;;;;;;25.86;80.59;99665.88;5093527;28;20264;-68
2023/06/23 02:16:35;;;;;;;13.27;12.00;;;;;;;25.89;80.10;99679.72;5092787;28;20212;-67
2023/06/23 02:19:03;;;;;;;13.97;12.70;;;;;;;25.93;80.05;99679.97;5093274;28;20222;-67
2023/06/23 02:21:31;;;;;;;15.13;13.83;;;;;;;25.85;80.02;99669.72;5093332;28;20240;-67
2023/06/23 02:24:04;;;;;;;14.97;13.63;;;;;;;25.95;79.50;99685.94;5092488;28;20251;-67
2023/06/23 02:26:32;;;;;;;14.83;13.73;;;;;;;25.94;79.57;99692.50;5092868;28;20604;-67
2023/06/23 02:28:59;;;;;;;16.40;15.00;;;;;;;25.90;79.22;99684.09;5092869;28;20248;-66
2023/06/23 02:31:26;;;;;;;15.80;14.17;;;;;;;25.81;80.96;99687.72;5093020;28;20288;-67
2023/06/23 02:33:55;;;;;;;16.07;14.77;;;;;;;25.73;81.38;99685.66;5092651;28;20257;-67
2023/06/23 02:36:24;;;;;;;14.77;13.53;;;;;;;25.69;81.51;99693.59;5092679;28;20716;-67
2023/06/23 02:38:55;;;;;;;15.10;13.43;;;;;;;25.71;80.88;99694.09;5093102;28;20243;-67
2023/06/23 02:41:26;;;;;;;14.50;13.30;;;;;;;25.77;80.88;99695.69;5092708;28;20190;-68
2023/06/23 02:43:57;;;;;;;14.23;13.07;;;;;;;25.80;80.68;99697.78;5091913;28;20654;-67
2023/06/23 02:46:28;;;;;;;15.37;13.97;;;;;;;25.81;80.20;99693.19;5092623;28;20245;-67
2023/06/23 02:49:05;;;;;;;16.23;14.53;;;;;;;25.77;80.92;99692.94;5092553;28;20715;-67
2023/06/23 02:51:35;;;;;;;15.07;13.63;;;;;;;25.80;80.76;99697.00;5092348;28;20233;-67
2023/06/23 02:54:05;;;;;;;16.27;14.57;;;;;;;25.80;79.90;99688.84;5091126;28;20207;-70
2023/06/23 02:56:35;;;;;;;15.93;14.37;;;;;;;25.83;79.83;99696.41;5092419;28;20604;-67
2023/06/23 02:59:06;;;;;;;15.63;14.23;;;;;;;25.88;80.05;99699.88;5092662;28;20195;-67
2023/06/23 03:01:39;;;;;;;17.20;15.60;;;;;;;25.89;79.30;99695.25;5092297;28;20263;-67
2023/06/23 03:04:07;;;;;;;17.13;15.43;;;;;;;25.84;78.99;99700.78;5092308;28;20183;-68
2023/06/23 03:06:35;;;;;;;20.13;16.40;;;;;;;25.58;80.84;99704.84;5075334;28;20196;-67
2023/06/23 03:09:03;;;;;;;18.93;17.03;;;;;;;25.51;80.61;99704.41;5072244;28;20187;-68
2023/06/23 03:11:30;;;;;;;18.43;16.77;;;;;;;25.38;81.18;99705.06;5083951;28;20202;-67
2023/06/23 03:13:58;;;;;;;18.70;17.03;;;;;;;25.42;81.91;99703.38;5092415;28;20199;-67
2023/06/23 03:16:30;;;;;;;19.33;17.47;;;;;;;25.33;81.02;99702.41;5092362;28;20280;-67
2023/06/23 03:19:07;;;;;;;20.57;18.43;;;;;;;25.31;81.47;99699.97;5092096;28;20765;-66
2023/06/23 03:21:39;;;;;;;20.80;17.53;;;;;;;25.19;81.08;99702.22;5092225;28;20183;-67
2023/06/23 03:24:09;;;;;;;19.70;17.53;;;;;;;25.03;81.98;99708.88;5092346;28;20188;-67
2023/06/23 03:26:41;;;;;;;20.40;18.33;;;;;;;24.71;82.81;99695.81;5091976;28;20653;-67
2023/06/23 03:29:10;;;;;;;20.97;17.57;;;;;;;24.57;84.13;99697.53;5091307;28;20244;-68
2023/06/23 03:31:40;;;;;;;20.63;18.27;;;;;;;24.52;84.18;99691.31;5090970;28;20223;-67
2023/06/23 03:34:08;;;;;;;21.07;18.90;;;;;;;24.49;84.72;99695.41;5089089;28;20244;-67
2023/06/23 03:36:39;;;;;;;30.20;18.23;;;;;;;24.52;85.25;99696.75;5091401;28;20640;-66
2023/06/23 03:39:15;;;;;;;19.57;15.77;;;;;;;24.70;85.28;99705.06;5090937;28;20626;-68
2023/06/23 03:41:42;;;;;;;24.17;18.27;;;;;;;24.83;83.46;99704.41;5081683;28;20193;-67
2023/06/23 03:44:18;;;;;;;17.70;16.07;;;;;;;24.91;84.02;99700.31;5090832;28;20194;-67
2023/06/23 03:46:51;;;;;;;29.30;17.07;;;;;;;25.11;82.51;99705.53;5091643;28;20240;-67
2023/06/23 03:49:20;;;;;;;17.57;15.37;;;;;;;25.18;83.36;99702.53;5091464;28;20263;-67
2023/06/23 03:51:51;;;;;;;19.30;16.97;;;;;;;25.37;81.63;99708.88;5090933;28;20183;-68
2023/06/23 03:54:20;;;;;;;20.70;17.77;;;;;;;25.38;80.70;99710.50;5090530;28;20195;-67
2023/06/23 03:56:49;;;;;;;19.87;17.57;;;;;;;25.03;81.41;99726.00;5091378;28;20210;-67
2023/06/23 03:59:17;;;;;;;21.00;16.67;;;;;;;24.93;81.77;99720.66;5091112;28;20199;-66
2023/06/23 04:01:46;;;;;;;18.80;17.10;;;;;;;24.90;82.47;99723.94;5091267;28;20663;-68
2023/06/23 04:04:16;;;;;;;20.60;16.27;;;;;;;25.19;82.18;99723.19;5091726;28;20202;-67
2023/06/23 04:06:46;;;;;;;17.93;16.37;;;;;;;25.81;79.72;99723.94;5076824;28;20238;-67
2023/06/23 04:09:16;;;;;;;21.27;16.07;;;;;;;26.46;77.90;99722.31;5089435;28;20243;-67
2023/06/23 04:11:44;;;;;;;18.10;16.50;;;;;;;27.06;74.13;99715.94;5095424;28;20252;-67
2023/06/23 04:14:14;;;;;;;23.47;16.23;;;;;;;27.60;71.50;99727.03;5086268;28;20263;-68
2023/06/23 04:16:42;;;;;;;17.57;14.80;;;;;;;28.02;69.16;99734.97;5091723;28;20208;-67
2023/06/23 04:19:11;;;;;;;19.20;14.53;;;;;;;28.44;66.86;99738.22;5094910;28;20191;-68
2023/06/23 04:21:40;;;;;;;15.90;14.30;;;;;;;28.89;65.47;99736.34;5095024;28;20248;-66
2023/06/23 04:24:08;;;;;;;14.53;13.10;;;;;;;29.25;64.63;99742.59;5094227;28;20192;-68
2023/06/23 04:26:37;;;;;;;14.50;13.00;;;;;;;29.76;62.33;99748.38;5095068;28;20194;-67
2023/06/23 04:29:07;;;;;;;17.53;14.13;;;;;;;30.10;60.52;99758.69;5092410;28;20187;-67
2023/06/23 04:31:35;;;;;;;14.57;13.07;;;;;;;30.53;58.39;99746.72;5094784;28;20210;-66
2023/06/23 04:34:02;;;;;;;17.07;12.50;;;;;;;31.20;57.27;99756.09;5083493;28;20249;-68
2023/06/23 04:36:36;;;;;;;14.27;12.87;;;;;;;31.88;54.39;99760.69;5086610;28;20215;-67
2023/06/23 04:39:09;;;;;;;17.10;12.77;;;;;;;32.26;52.85;99765.03;5094683;28;20184;-66
2023/06/23 04:41:43;;;;;;;19.40;12.03;;;;;;;32.78;51.41;99762.75;5094485;28;20183;-67
2023/06/23 04:44:12;;;;;;;13.77;12.30;;;;;;;33.35;48.67;99771.25;5093917;28;20568;-68
2023/06/23 04:46:42;;;;;;;17.43;13.00;;;;;;;33.77;47.24;99778.25;5083194;28;20598;-67
2023/06/23 04:49:11;;;;;;;13.70;11.93;;;;;;;33.76;47.35;99760.09;5088124;28;20187;-67
2023/06/23 04:51:46;;;;;;;17.10;12.13;;;;;;;34.00;47.24;99760.19;5088168;28;20196;-67
2023/06/23 04:54:20;;;;;;;16.08;13.05;;;;;;;34.27;46.17;99760.28;5083433;28;20187;-67
2023/06/23 04:56:50;;;;;;;18.15;11.98;;;;;;;34.38;46.01;99755.94;5092729;28;20198;-66
2023/06/23 04:59:22;;;;;;;14.10;12.63;;;;;;;34.45;44.90;99760.88;5094375;28;20191;-68
2023/06/23 05:01:49;;;;;;;9.25;8.13;;;;;;;34.81;45.77;99760.81;5093665;28;20191;-70
2023/06/23 05:04:18;;;;;;;15.02;12.25;;;;;;;35.33;43.67;99772.63;5094992;28;20191;-70
2023/06/23 05:06:46;;;;;;;12.77;11.48;;;;;;;35.87;42.35;99762.66;5093912;28;20264;-69
2023/06/23 05:09:17;;;;;;;30.67;12.20;;;;;;;35.78;42.02;99764.78;5094481;28;20187;-69
2023/06/23 05:11:47;;;;;;;16.42;10.48;;;;;;;36.04;41.22;99763.09;5093434;28;20591;-69
2023/06/23 05:14:17;;;;;;;14.13;10.30;;;;;;;36.14;40.32;99756.22;5094329;28;20195;-69
2023/06/23 05:16:45;;;;;;;11.45;9.07;;;;;;;35.89;41.62;99760.34;5093803;28;20275;-67
2023/06/23 05:19:13;;;;;;;13.63;9.55;;;;;;;35.88;42.17;99755.97;5094255;28;20199;-69
2023/06/23 05:21:41;;;;;;;14.88;11.77;;;;;;;36.05;41.48;99747.31;5093445;28;20626;-72
2023/06/23 05:24:11;;;;;;;12.18;10.98;;;;;;;36.30;40.19;99749.53;5092989;28;20199;-71
2023/06/23 05:26:41;;;;;;;75.68;14.52;;;;;;;36.41;39.28;99761.66;5093934;28;20203;-70
2023/06/23 05:29:09;;;;;;;23.60;11.35;;;;;;;36.32;39.53;99771.31;5093917;28;20195;-74
2023/06/23 05:31:41;;;;;;;10.75;9.70;;;;;;;36.10;40.56;99755.34;5093462;28;20239;-69
2023/06/23 05:34:12;;;;;;;15.70;10.65;;;;;;;35.88;40.18;99758.75;5092853;28;20236;-76
2023/06/23 05:36:41;;;;;;;19.63;12.52;;;;;;;36.13;38.82;99760.16;5093111;28;20215;-71
2023/06/23 05:39:09;;;;;;;13.48;11.32;;;;;;;36.31;38.11;99756.69;5092785;28;20199;-71
2023/06/23 05:41:36;;;;;;;13.25;10.77;;;;;;;36.39;37.97;99754.88;5093302;28;20191;-71
2023/06/23 05:44:03;;;;;;;15.68;11.00;;;;;;;36.35;38.40;99754.81;5092987;28;20200;-72
2023/06/23 05:46:33;;;;;;;12.10;9.48;;;;;;;36.12;40.12;99753.00;5093253;28;20256;-72
2023/06/23 05:49:06;;;;;;;11.93;10.50;;;;;;;36.77;35.33;99752.19;5093293;28;20582;-72
2023/06/23 05:51:34;;;;;;;10.88;10.02;;;;;;;37.24;34.89;99758.38;5092270;28;20180;-72
2023/06/23 05:54:07;;;;;;;17.38;10.57;;;;;;;37.59;35.28;99756.28;5092874;28;20687;-74
2023/06/23 05:56:40;;;;;;;10.80;9.85;;;;;;;36.94;36.51;99754.53;5093182;28;20540;-72
2023/06/23 05:59:15;;;;;;;10.23;9.45;;;;;;;36.40;38.54;99748.97;5089734;28;20187;-71
2023/06/23 06:01:45;;;;;;;10.55;9.65;;;;;;;36.16;38.63;99753.88;5091438;28;20244;-70
2023/06/23 06:04:17;;;;;;;46.50;13.13;;;;;;;36.11;38.45;99752.22;5092953;28;20190;-70
2023/06/23 06:06:45;;;;;;;14.25;11.38;;;;;;;36.34;37.57;99763.47;5092900;28;20183;-71
2023/06/23 06:09:14;;;;;;;11.75;10.55;;;;;;;36.24;37.95;99758.47;5092853;28;20746;-73
2023/06/23 06:11:43;;;;;;;18.33;10.85;;;;;;;35.97;38.43;99745.53;5092230;28;20252;-80
2023/06/23 06:14:11;;;;;;;11.18;10.27;;;;;;;35.81;40.67;99755.78;5092214;28;20550;-79
2023/06/23 06:16:40;;;;;;;11.85;10.65;;;;;;;35.95;40.13;99742.31;5091793;28;20195;-83
2023/06/23 06:19:08;;;;;;;16.48;11.05;;;;;;;35.91;39.69;99738.66;5091154;28;20655;-77
2023/06/23 06:21:40;;;;;;;12.65;11.57;;;;;;;35.94;39.21;99754.53;5092175;28;20694;-75
2023/06/23 06:24:10;;;;;;;13.77;12.43;;;;;;;35.52;39.18;99750.66;5087120;28;20249;-77
2023/06/23 06:26:37;;;;;;;12.10;10.57;;;;;;;35.42;39.90;99745.63;5090130;28;20191;-76
2023/06/23 06:29:06;;;;;;;17.33;11.15;;;;;;;35.47;40.96;99753.66;5091978;28;20659;-76
2023/06/23 06:31:34;;;;;;;45.83;12.77;;;;;;;35.63;40.23;99746.19;5090134;28;20222;-77
2023/06/23 06:34:03;;;;;;;13.85;11.25;;;;;;;35.43;40.71;99744.50;5092542;28;20201;-78
2023/06/23 06:36:32;;;;;;;13.13;11.88;;;;;;;35.50;39.61;99747.44;5091283;28;20260;-76
2023/06/23 06:39:02;;;;;;;11.93;10.85;;;;;;;35.29;40.68;99744.09;5091542;28;20215;-78
2023/06/23 06:41:31;;;;;;;11.15;10.00;;;;;;;35.24;40.76;99741.56;5090203;28;20629;-79
2023/06/23 06:43:57;;;;;;;13.45;11.82;;;;;;;35.15;40.14;99747.22;5092532;28;20252;-79
2023/06/23 06:46:27;;;;;;;13.02;11.80;;;;;;;35.38;38.05;99739.19;5092763;28;20226;-81
2023/06/23 06:48:56;;;;;;;12.20;11.40;;;;;;;35.49;38.13;99746.63;5092346;28;20191;-86
2023/06/23 06:51:24;;;;;;;30.35;11.18;;;;;;;35.79;37.25;99738.75;5091905;28;20603;-78
2023/06/23 06:53:51;;;;;;;12.15;10.93;;;;;;;35.69;38.30;99747.53;5092261;28;20244;-76
2023/06/23 06:56:20;;;;;;;19.23;10.77;;;;;;;35.81;37.58;99736.44;5091999;28;20192;-77
2023/06/23 06:58:47;;;;;;;13.10;11.73;;;;;;;35.87;37.52;99735.00;5092405;28;20223;-79
2023/06/23 07:01:14;;;;;;;20.42;10.35;;;;;;;35.62;38.37;99733.53;5091427;28;20241;-76
2023/06/23 07:03:42;;;;;;;11.70;10.65;;;;;;;35.75;39.02;99733.13;5091631;28;20347;-77
2023/06/23 07:06:10;;;;;;;17.63;11.55;;;;;;;35.98;36.98;99738.84;5073771;28;20195;-77
2023/06/23 07:08:38;;;;;;;11.40;10.20;;;;;;;35.98;36.34;99731.34;5091992;28;20187;-77
2023/06/23 07:11:05;;;;;;;11.90;10.30;;;;;;;35.99;36.53;99744.00;5091728;28;20199;-76
2023/06/23 07:13:33;;;;;;;14.93;10.73;;;;;;;36.23;34.87;99743.03;5091332;28;20187;-76
2023/06/23 07:16:00;;;;;;;11.05;10.25;;;;;;;36.05;36.64;99736.25;5091241;28;20207;-77
2023/06/23 07:18:28;;;;;;;12.50;11.50;;;;;;;35.99;35.86;99727.41;5083869;28;20219;-78
2023/06/23 07:20:55;;;;;;;10.75;10.15;;;;;;;36.10;35.96;99733.19;5091408;28;20195;-82
2023/06/23 07:23:21;;;;;;;12.32;10.80;;;;;;;36.33;35.67;99720.31;5091453;28;20267;-78
2023/06/23 07:25:49;;;;;;;14.02;10.57;;;;;;;36.64;35.00;99736.84;5092323;28;20191;-79
2023/06/23 07:28:16;;;;;;;13.38;11.80;;;;;;;36.74;34.57;99733.53;5085675;28;20196;-80
2023/06/23 07:30:44;;;;;;;11.65;10.63;;;;;;;36.68;34.68;99723.91;5072381;28;20766;-79
2023/06/23 07:33:11;;;;;;;11.93;10.70;;;;;;;36.96;34.51;99735.59;5087446;28;20191;-78
2023/06/23 07:35:38;;;;;;;11.30;10.15;;;;;;;37.11;34.37;99727.19;5086674;28;20202;-81
2023/06/23 07:38:05;;;;;;;12.07;10.23;;;;;;;37.42;34.38;99734.56;5081860;28;20208;-75
2023/06/23 07:40:33;;;;;;;12.38;11.27;;;;;;;37.52;33.14;99735.91;5089195;28;20274;-76
2023/06/23 07:43:00;;;;;;;10.45;9.50;;;;;;;37.14;33.50;99729.28;5088524;28;20195;-77
2023/06/23 07:45:26;;;;;;;14.25;10.60;;;;;;;36.93;35.02;99712.19;5098625;28;20203;-78
2023/06/23 07:47:54;;;;;;;26.35;11.30;;;;;;;36.94;34.88;99718.53;5099069;28;20199;-78
2023/06/23 07:50:21;;;;;;;11.45;10.30;;;;;;;37.01;35.82;99715.91;5098185;28;20267;-80
2023/06/23 07:52:52;;;;;;;36.38;11.55;;;;;;;36.89;36.18;99704.97;5097213;28;20652;-77
2023/06/23 07:55:20;;;;;;;11.85;10.82;;;;;;;37.19;35.39;99714.31;5098311;28;20277;-82
2023/06/23 07:57:48;;;;;;;13.77;10.93;;;;;;;37.52;35.30;99708.19;5077365;28;20223;-81
2023/06/23 08:00:16;;;;;;;17.63;11.27;;;;;;;37.28;36.20;99703.00;5077976;28;20192;-78
2023/06/23 08:02:43;;;;;;;12.98;11.70;;;;;;;37.05;36.17;99702.91;5077821;28;20249;-80
2023/06/23 08:05:11;;;;;;;13.25;11.73;;;;;;;36.96;36.19;99705.13;5083032;28;20187;-80
2023/06/23 08:07:37;;;;;;;14.00;12.85;;;;;;;36.86;35.34;99700.16;5093869;28;20670;-77
2023/06/23 08:10:05;;;;;;;14.32;11.73;;;;;;;36.06;37.00;99699.94;5087088;28;20198;-79
2023/06/23 08:12:31;;;;;;;15.48;12.38;;;;;;;36.17;36.70;99700.19;5093502;28;20298;-83
2023/06/23 08:14:58;;;;;;;19.85;12.63;;;;;;;36.33;37.30;99698.19;5091400;28;20304;-83
2023/06/23 08:17:25;;;;;;;15.27;13.77;;;;;;;36.47;36.49;99688.25;5093687;28;20711;-77
2023/06/23 08:19:51;;;;;;;14.45;12.88;;;;;;;35.26;39.11;99690.31;5093677;28;20191;-75
2023/06/23 08:22:20;;;;;;;16.75;13.50;;;;;;;35.06;40.32;99693.28;5094167;28;20298;-76
2023/06/23 08:24:46;;;;;;;18.60;12.98;;;;;;;35.16;39.67;99671.50;5094773;28;20191;-78
2023/06/23 08:27:15;;;;;;;13.32;11.93;;;;;;;35.15;40.94;99671.84;5094045;28;20203;-85
2023/06/23 08:29:41;;;;;;;18.45;13.35;;;;;;;35.49;39.43;99682.25;5075059;28;20198;-77
2023/06/23 08:32:08;;;;;;;15.80;12.88;;;;;;;35.73;39.65;99690.38;5093427;28;20235;-76
2023/06/23 08:34:36;;;;;;;13.77;12.43;;;;;;;36.02;38.57;99676.91;5093712;28;20705;-81
2023/06/23 08:37:03;;;;;;;14.73;13.02;;;;;;;36.19;37.92;99676.50;5094203;28;20583;-82
2023/06/23 08:39:31;;;;;;;13.82;12.25;;;;;;;36.33;36.01;99664.97;5094434;28;20641;-86
2023/06/23 08:41:59;;;;;;;12.73;11.32;;;;;;;36.37;36.34;99671.38;5095005;28;20290;-85
2023/06/23 08:44:26;;;;;;;11.73;10.70;;;;;;;36.33;35.26;99676.03;5094228;28;20290;-80
2023/06/23 08:46:57;;;;;;;11.35;10.55;;;;;;;35.82;36.72;99671.66;5093917;28;20639;-73
2023/06/23 08:49:25;;;;;;;12.35;11.02;;;;;;;35.35;37.08;99657.03;5092333;28;20202;-78
2023/06/23 08:51:52;;;;;;;13.20;12.18;;;;;;;35.01;38.83;99663.16;5089169;28;20621;-76
2023/06/23 08:54:19;;;;;;;13.10;11.93;;;;;;;34.81;40.47;99653.13;5090038;28;20624;-72
2023/06/23 08:56:47;;;;;;;12.95;11.95;;;;;;;34.64;40.06;99661.69;5090272;28;20203;-76
2023/06/23 08:59:14;;;;;;;12.95;12.02;;;;;;;34.69;38.67;99653.16;5090202;28;20219;-75
2023/06/23 09:01:40;;;;;;;11.77;10.77;;;;;;;34.82;39.43;99654.75;5090538;28;20200;-76
2023/06/23 09:04:07;;;;;;;11.82;10.85;;;;;;;35.21;38.16;99654.66;5090536;28;20207;-77
2023/06/23 09:06:34;;;;;;;11.23;10.38;;;;;;;35.49;37.16;99657.38;5091252;28;20199;-78
2023/06/23 09:09:01;;;;;;;10.63;9.93;;;;;;;35.33;37.54;99664.84;5091137;28;20203;-76
2023/06/23 09:11:28;;;;;;;11.05;10.18;;;;;;;35.51;36.41;99655.03;5089438;28;20195;-77
2023/06/23 09:13:57;;;;;;;10.02;9.18;;;;;;;35.40;37.29;99656.75;5090607;28;20662;-79
2023/06/23 09:16:25;;;;;;;11.27;10.30;;;;;;;35.61;36.41;99660.06;5083431;28;20203;-81
2023/06/23 09:18:53;;;;;;;10.40;9.80;;;;;;;35.74;34.85;99658.78;5090228;28;20246;-73
2023/06/23 09:21:21;;;;;;;10.98;10.27;;;;;;;35.72;36.32;99645.31;5089897;28;20191;-73
2023/06/23 09:24:03;;;;;;;11.15;10.13;;;;;;;36.01;35.19;99652.38;5090000;28;20224;-75
2023/06/23 09:26:30;;;;;;;11.10;10.23;;;;;;;36.30;35.60;99654.66;5088721;28;20192;-78
2023/06/23 09:29:17;;;;;;;11.80;11.02;;;;;;;36.54;36.57;99635.78;5088323;28;20207;-72
2023/06/23 09:31:44;;;;;;;17.13;11.52;;;;;;;36.76;36.48;99634.28;5085933;28;20759;-72
2023/06/23 09:34:21;;;;;;;13.32;12.32;;;;;;;36.49;38.14;99640.81;5083015;28;20194;-72
2023/06/23 09:36:48;;;;;;;12.20;11.07;;;;;;;36.54;36.84;99643.31;5084824;28;20190;-75
2023/06/23 09:39:15;;;;;;;12.55;11.65;;;;;;;35.14;39.52;99617.75;5089435;28;20661;-76
2023/06/23 09:41:47;;;;;;;12.73;11.73;;;;;;;35.40;39.78;99631.88;5090161;28;20256;-72
2023/06/23 09:44:14;;;;;;;12.88;12.05;;;;;;;34.91;41.40;99619.50;5085872;28;20206;-75
2023/06/23 09:46:43;;;;;;;14.70;13.30;;;;;;;34.05;43.87;99616.53;5090914;28;20203;-74
2023/06/23 09:49:10;;;;;;;13.43;12.40;;;;;;;34.11;43.88;99615.13;5090775;28;20194;-72
2023/06/23 09:51:38;;;;;;;12.65;11.60;;;;;;;34.59;42.42;99612.25;5091009;28;20616;-73
2023/06/23 09:54:05;;;;;;;13.43;11.68;;;;;;;34.85;42.18;99616.19;5090971;28;20289;-73
2023/06/23 09:56:32;;;;;;;12.52;11.25;;;;;;;35.04;42.33;99597.00;5090816;28;20196;-75
2023/06/23 09:58:59;;;;;;;12.48;11.50;;;;;;;35.44;41.02;99605.13;5088477;28;20207;-77
2023/06/23 10:01:25;;;;;;;11.73;10.63;;;;;;;35.65;40.76;99600.13;5089186;28;20248;-73
2023/06/23 10:03:55;;;;;;;12.00;11.07;;;;;;;35.50;40.53;99598.16;5086889;28;20252;-74
2023/06/23 10:06:24;;;;;;;19.40;11.95;;;;;;;35.63;40.69;99605.19;5088485;28;20199;-76
2023/06/23 10:08:54;;;;;;;12.75;11.45;;;;;;;35.39;40.95;99600.66;5088931;28;20617;-77
2023/06/23 10:11:29;;;;;;;12.57;11.30;;;;;;;35.46;40.69;99602.81;5089509;28;20279;-76
2023/06/23 10:13:57;;;;;;;12.70;11.68;;;;;;;35.18;40.60;99596.53;5086468;28;20274;-76
2023/06/23 10:16:25;;;;;;;11.25;10.30;;;;;;;35.19;40.13;99592.63;5088613;28;20203;-80
2023/06/23 10:18:54;;;;;;;11.68;10.63;;;;;;;35.28;40.53;99594.06;5089503;28;20227;-79
2023/06/23 10:21:21;;;;;;;11.18;10.45;;;;;;;35.50;39.66;99587.94;5081479;28;20252;-71
2023/06/23 10:23:49;;;;;;;10.77;10.18;;;;;;;35.47;39.33;99587.81;5089777;28;20195;-77
2023/06/23 10:26:17;;;;;;;11.70;10.93;;;;;;;34.93;40.66;99586.81;5089999;28;20245;-70
2023/06/23 10:28:47;;;;;;;13.40;12.00;;;;;;;33.73;44.29;99576.13;5089242;28;20256;-72
2023/06/23 10:31:14;;;;;;;10.45;9.85;;;;;;;34.19;42.16;99581.09;5085695;28;20707;-72
2023/06/23 10:33:42;;;;;;;11.40;10.50;;;;;;;34.31;41.73;99583.84;5089347;28;20637;-74
2023/06/23 10:36:14;;;;;;;10.77;9.95;;;;;;;34.52;41.10;99581.69;5089523;28;20253;-74
2023/06/23 10:38:46;;;;;;;11.88;10.75;;;;;;;34.65;41.61;99577.72;5089589;28;20215;-75
2023/06/23 10:41:14;;;;;;;11.88;10.80;;;;;;;34.78;41.61;99559.97;5089378;28;20252;-79
2023/06/23 10:43:43;;;;;;;11.23;10.52;;;;;;;34.98;40.15;99578.28;5089737;28;20687;-79
2023/06/23 10:46:10;;;;;;;11.15;10.10;;;;;;;35.02;39.77;99570.88;5089143;28;20241;-74
2023/06/23 10:48:37;;;;;;;10.98;9.88;;;;;;;35.22;38.03;99564.28;5089080;28;20561;-71
2023/06/23 10:51:05;;;;;;;10.50;9.85;;;;;;;35.14;38.98;99559.72;5087884;28;20195;-78
2023/06/23 10:53:33;;;;;;;11.00;10.20;;;;;;;35.12;39.26;99551.00;5087728;28;20195;-75
2023/06/23 10:56:00;;;;;;;9.30;8.77;;;;;;;34.80;37.12;99565.94;5078878;28;20622;-76
2023/06/23 10:58:28;;;;;;;8.98;8.30;;;;;;;34.99;35.95;99560.53;5088611;28;20215;-77
2023/06/23 11:01:00;;;;;;;9.70;8.93;;;;;;;34.68;36.69;99549.41;5089640;28;20198;-77
2023/06/23 11:03:32;;;;;;;8.63;7.97;;;;;;;34.82;35.50;99558.13;5090417;28;20287;-75
2023/06/23 11:06:00;;;;;;;9.27;8.77;;;;;;;35.16;35.70;99535.31;5088928;28;20259;-74
2023/06/23 11:08:35;;;;;;;10.15;9.15;;;;;;;34.89;37.70;99544.47;5088885;28;20199;-74
2023/06/23 11:11:05;;;;;;;9.80;8.95;;;;;;;35.19;37.40;99537.38;5088494;28;20202;-83
2023/06/23 11:13:41;;;;;;;7.57;6.88;;;;;;;35.43;32.94;99526.94;5086062;28;20202;-77
2023/06/23 11:16:15;;;;;;;9.45;8.77;;;;;;;35.56;34.93;99541.47;5070878;28;20658;-76
2023/06/23 11:18:52;;;;;;;9.15;8.50;;;;;;;35.61;35.20;99530.94;5089202;28;20702;-84
2023/06/23 11:21:30;;;;;;;9.43;8.70;;;;;;;35.73;34.62;99532.78;5088588;28;20197;-80
2023/06/23 11:24:15;;;;;;;9.38;8.68;;;;;;;35.84;34.79;99536.63;5088681;28;20195;-72
2023/06/23 11:26:50;;;;;;;9.40;8.75;;;;;;;35.48;35.79;99515.59;5088853;28;20719;-70
2023/06/23 11:29:20;;;;;;;8.75;8.10;;;;;;;35.65;34.37;99517.19;5088132;28;20195;-68